createdAt,value
2023-11-14T00:01:14.317Z,14.87
2023-11-14T00:03:44.634Z,11.80
2023-11-14T00:06:14.833Z,10.27
2023-11-14T00:08:44.987Z,13.30
2023-11-14T00:11:15.179Z,14.03
2023-11-14T00:13:48.128Z,7.90
2023-11-14T00:16:18.350Z,8.23
2023-11-14T00:18:48.578Z,15.60
2023-11-14T00:21:18.728Z,19.30
2023-11-14T00:23:48.884Z,13.37
2023-11-14T00:26:18.942Z,16.90
2023-11-14T00:28:56.718Z,13.93
2023-11-14T00:31:27.000Z,15.30
2023-11-14T00:33:57.098Z,17.20
2023-11-14T00:36:27.225Z,11.57
2023-11-14T00:39:01.187Z,12.23
2023-11-14T00:41:31.521Z,11.90
2023-11-14T00:44:04.234Z,9.30
2023-11-14T00:46:34.414Z,12.30
2023-11-14T00:49:04.659Z,14.03
2023-11-14T00:51:34.806Z,15.73
2023-11-14T00:54:05.435Z,12.43
2023-11-14T00:56:35.641Z,12.90
2023-11-14T00:59:09.781Z,13.90
2023-11-14T01:01:40.652Z,9.93
2023-11-14T01:04:11.672Z,14.40
2023-11-14T01:06:41.832Z,11.77
2023-11-14T01:09:11.991Z,17.70
2023-11-14T01:11:42.244Z,13.87
2023-11-14T01:14:15.054Z,13.50
2023-11-14T01:16:45.305Z,12.23
2023-11-14T01:19:15.608Z,13.20
2023-11-14T01:21:46.541Z,26.27
2023-11-14T01:24:18.111Z,20.20
2023-11-14T01:26:48.224Z,12.93
2023-11-14T01:29:21.002Z,17.03
2023-11-14T01:31:51.461Z,15.27
2023-11-14T01:34:21.679Z,12.37
2023-11-14T01:36:52.658Z,19.97
2023-11-14T01:39:22.785Z,14.13
2023-11-14T01:41:52.835Z,14.07
2023-11-14T01:44:26.111Z,12.87
2023-11-14T01:46:58.498Z,20.73
2023-11-14T01:49:28.999Z,20.07
2023-11-14T01:51:59.849Z,21.30
2023-11-14T01:54:30.186Z,14.30
2023-11-14T01:57:00.259Z,13.13
2023-11-14T01:59:33.350Z,17.50
2023-11-14T02:02:05.589Z,13.00
2023-11-14T02:04:37.290Z,18.70
2023-11-14T02:07:07.640Z,9.37
2023-11-14T02:09:38.088Z,15.43
2023-11-14T02:12:09.146Z,13.43
2023-11-14T02:14:42.113Z,20.00
2023-11-14T02:17:18.722Z,19.17
2023-11-14T02:19:49.022Z,13.17
2023-11-14T02:22:20.096Z,12.83
2023-11-14T02:24:56.780Z,17.00
2023-11-14T02:27:27.022Z,14.17
2023-11-14T02:29:58.002Z,12.60
2023-11-14T02:32:28.137Z,15.57
2023-11-14T02:34:58.950Z,16.13
2023-11-14T02:37:29.899Z,12.70
2023-11-14T02:40:04.678Z,19.50
2023-11-14T02:42:34.829Z,16.93
2023-11-14T02:45:08.083Z,19.40
2023-11-14T02:47:38.379Z,12.80
2023-11-14T02:50:17.222Z,16.50
2023-11-14T02:52:47.362Z,18.33
2023-11-14T02:55:21.507Z,17.87
2023-11-14T02:57:52.595Z,17.73
2023-11-14T03:00:24.872Z,23.37
2023-11-14T03:02:55.131Z,11.70
2023-11-14T03:05:25.512Z,13.60
2023-11-14T03:07:55.573Z,15.87
2023-11-14T03:10:28.612Z,15.70
2023-11-14T03:12:58.765Z,17.93
2023-11-14T03:15:29.787Z,15.67
2023-11-14T03:18:02.461Z,16.53
2023-11-14T03:20:35.200Z,23.20
2023-11-14T03:23:07.138Z,15.60
2023-11-14T03:25:40.057Z,14.60
2023-11-14T03:28:10.221Z,13.77
2023-11-14T03:30:40.432Z,17.87
2023-11-14T03:33:10.633Z,12.80
2023-11-14T03:35:40.806Z,12.57
2023-11-14T03:38:10.988Z,12.23
2023-11-14T03:40:44.982Z,10.13
2023-11-14T03:43:15.172Z,11.07
2023-11-14T03:45:45.355Z,13.73
2023-11-14T03:48:16.163Z,12.13
2023-11-14T03:50:46.273Z,15.20
2023-11-14T03:53:18.309Z,12.63
2023-11-14T03:55:51.857Z,9.07
2023-11-14T03:58:22.069Z,11.90
2023-11-14T04:00:53.097Z,14.67
2023-11-14T04:03:23.354Z,11.50
2023-11-14T04:05:53.617Z,10.93
2023-11-14T04:08:23.770Z,13.17
2023-11-14T04:10:56.602Z,13.70
2023-11-14T04:13:26.775Z,13.40
2023-11-14T04:15:57.083Z,13.53
2023-11-14T04:18:27.397Z,12.23
2023-11-14T04:20:59.823Z,12.47
2023-11-14T04:23:30.411Z,11.03
2023-11-14T04:26:03.171Z,12.63
2023-11-14T04:28:33.395Z,17.53
2023-11-14T04:31:03.688Z,13.70
2023-11-14T04:33:33.828Z,15.33
2023-11-14T04:36:04.614Z,12.27
2023-11-14T04:38:34.685Z,11.70
2023-11-14T04:41:07.651Z,9.20
2023-11-14T04:43:37.830Z,9.47
2023-11-14T04:46:09.131Z,14.03
2023-11-14T04:48:39.226Z,13.23
2023-11-14T04:51:09.493Z,15.00
2023-11-14T04:53:39.601Z,18.13
2023-11-14T04:56:12.511Z,12.67
2023-11-14T04:58:42.605Z,10.30
2023-11-14T05:01:12.758Z,12.40
2023-11-14T05:03:42.886Z,10.83
2023-11-14T05:06:12.926Z,12.07
2023-11-14T05:08:43.026Z,12.53
2023-11-14T05:11:15.811Z,12.47
2023-11-14T05:13:45.942Z,12.57
2023-11-14T05:16:22.463Z,10.30
2023-11-14T05:18:54.651Z,12.27
2023-11-14T05:21:24.711Z,9.47
2023-11-14T05:23:54.776Z,20.07
2023-11-14T05:26:27.449Z,13.53
2023-11-14T05:28:57.516Z,9.50
2023-11-14T05:31:27.652Z,13.17
2023-11-14T05:33:57.785Z,9.50
2023-11-14T05:36:27.805Z,7.20
2023-11-14T05:38:57.916Z,13.87
2023-11-14T05:41:30.632Z,9.53
2023-11-14T05:44:02.133Z,12.77
2023-11-14T05:46:32.934Z,10.07
2023-11-14T05:49:03.162Z,8.70
2023-11-14T05:51:33.497Z,8.80
2023-11-14T05:54:03.634Z,12.33
2023-11-14T05:56:36.428Z,11.23
2023-11-14T05:59:08.820Z,13.80
2023-11-14T06:01:39.018Z,16.17
2023-11-14T06:04:10.778Z,9.47
2023-11-14T06:06:40.996Z,11.00
2023-11-14T06:09:11.848Z,11.40
2023-11-14T06:11:45.028Z,16.27
2023-11-14T06:14:15.117Z,14.27
2023-11-14T06:16:46.525Z,10.53
2023-11-14T06:19:16.650Z,14.97
2023-11-14T06:21:49.093Z,15.83
2023-11-14T06:24:19.468Z,10.90
2023-11-14T06:26:52.199Z,8.13
2023-11-14T06:29:22.349Z,11.47
2023-11-14T06:31:52.472Z,13.40
2023-11-14T06:34:23.234Z,19.37
2023-11-14T06:36:53.359Z,8.97
2023-11-14T06:39:23.677Z,11.23
2023-11-14T06:41:56.506Z,14.10
2023-11-14T06:44:26.697Z,14.83
2023-11-14T06:46:56.817Z,17.73
2023-11-14T06:49:26.994Z,10.97
2023-11-14T06:51:57.162Z,10.93
2023-11-14T06:54:27.367Z,13.23
2023-11-14T06:57:00.742Z,16.40
2023-11-14T06:59:32.961Z,7.30
2023-11-14T07:02:07.307Z,11.80
2023-11-14T07:04:38.443Z,12.93
2023-11-14T07:07:09.021Z,11.03
2023-11-14T07:09:39.198Z,12.73
2023-11-14T07:12:12.832Z,15.83
2023-11-14T07:14:43.020Z,15.60
2023-11-14T07:17:13.521Z,11.63
2023-11-14T07:19:43.845Z,11.60
2023-11-14T07:22:14.122Z,15.20
2023-11-14T07:24:47.246Z,15.17
2023-11-14T07:27:19.947Z,9.87
2023-11-14T07:29:52.562Z,14.40
2023-11-14T07:32:22.675Z,10.10
2023-11-14T07:34:54.395Z,12.13
2023-11-14T07:37:24.523Z,10.57
2023-11-14T07:39:57.462Z,8.17
2023-11-14T07:42:30.453Z,12.30
2023-11-14T07:45:00.659Z,11.57
2023-11-14T07:47:31.033Z,15.10
2023-11-14T07:50:01.688Z,8.27
2023-11-14T07:52:31.905Z,14.80
2023-11-14T07:55:04.346Z,10.17
2023-11-14T07:57:37.079Z,9.63
2023-11-14T08:00:10.492Z,10.57
2023-11-14T08:02:44.610Z,10.50
2023-11-14T08:05:14.999Z,8.57
2023-11-14T08:07:45.118Z,9.50
2023-11-14T08:10:16.137Z,8.00
2023-11-14T08:12:48.902Z,13.00
2023-11-14T08:15:19.017Z,15.60
2023-11-14T08:17:49.136Z,12.73
2023-11-14T08:20:19.584Z,8.73
2023-11-14T08:22:49.717Z,12.83
2023-11-14T08:25:21.529Z,12.40
2023-11-14T08:27:54.222Z,9.80
2023-11-14T08:30:28.651Z,9.20
2023-11-14T08:32:59.096Z,11.37
2023-11-14T08:35:29.191Z,16.63
2023-11-14T08:38:06.979Z,10.57
2023-11-14T08:40:43.955Z,54.93
2023-11-14T08:43:16.731Z,75.03
2023-11-14T08:45:46.791Z,15.80
2023-11-14T08:48:16.893Z,33.40
2023-11-14T08:50:46.960Z,43.17
2023-11-14T08:53:17.837Z,39.80
2023-11-14T08:55:47.982Z,95.80
2023-11-14T08:58:20.789Z,104.77
2023-11-14T09:00:51.124Z,34.33
2023-11-14T09:03:21.307Z,85.13
2023-11-14T09:05:51.618Z,43.03
2023-11-14T09:08:23.865Z,26.53
2023-11-14T09:10:54.452Z,28.80
2023-11-14T09:13:27.164Z,77.53
2023-11-14T09:15:57.337Z,97.07
2023-11-14T09:18:27.658Z,69.07
2023-11-14T09:20:59.002Z,67.30
2023-11-14T09:23:29.233Z,25.13
2023-11-14T09:26:00.803Z,46.80
2023-11-14T09:28:34.439Z,56.43
2023-11-14T09:31:06.762Z,28.93
2023-11-14T09:33:40.477Z,96.23
2023-11-14T09:36:11.255Z,45.00
2023-11-14T09:38:41.885Z,122.47
2023-11-14T09:41:13.434Z,121.27
2023-11-14T09:43:47.516Z,139.93
2023-11-14T09:46:17.845Z,71.80
2023-11-14T09:48:48.090Z,134.47
2023-11-14T09:51:18.922Z,63.57
2023-11-14T09:53:51.501Z,19.27
2023-11-14T09:56:22.665Z,32.47
2023-11-14T09:59:01.991Z,120.03
2023-11-14T10:01:32.929Z,97.90
2023-11-14T10:04:07.284Z,21.67
2023-11-14T10:06:44.159Z,76.63
2023-11-14T10:09:17.982Z,22.33
2023-11-14T10:12:05.442Z,28.57
2023-11-14T10:14:51.434Z,38.90
2023-11-14T10:17:22.108Z,35.43
2023-11-14T10:20:04.584Z,159.77
2023-11-14T10:22:35.453Z,57.97
2023-11-14T10:25:05.934Z,57.90
2023-11-14T10:27:38.345Z,42.13
2023-11-14T10:30:12.951Z,63.20
2023-11-14T10:32:43.133Z,60.57
2023-11-14T10:35:19.952Z,68.83
2023-11-14T10:37:50.800Z,38.97
2023-11-14T10:40:20.926Z,224.50
2023-11-14T10:42:57.022Z,35.77
2023-11-14T10:45:29.900Z,46.13
2023-11-14T10:48:00.546Z,45.00
2023-11-14T10:50:33.942Z,33.03
2023-11-14T10:53:05.413Z,17.30
2023-11-14T10:55:36.917Z,48.93
2023-11-14T10:58:08.326Z,18.90
2023-11-14T11:00:41.814Z,57.50
2023-11-14T11:03:17.891Z,24.73
2023-11-14T11:05:50.283Z,31.13
2023-11-14T11:08:21.855Z,22.80
2023-11-14T11:10:53.984Z,56.30
2023-11-14T11:13:25.899Z,31.83
2023-11-14T11:15:58.855Z,91.23
2023-11-14T11:18:39.974Z,134.00
2023-11-14T11:21:12.043Z,80.83
2023-11-14T11:24:10.986Z,81.33
2023-11-14T11:27:11.258Z,28.17
2023-11-14T11:29:58.196Z,49.20
2023-11-14T11:32:36.981Z,77.37
2023-11-14T11:35:24.530Z,49.40
2023-11-14T11:37:55.636Z,54.83
2023-11-14T11:40:29.380Z,91.93
2023-11-14T11:43:00.892Z,70.00
2023-11-14T11:45:35.316Z,18.70
2023-11-14T11:48:16.326Z,32.63
2023-11-14T11:50:47.479Z,39.27
2023-11-14T11:53:17.638Z,24.50
2023-11-14T11:55:49.223Z,12.17
2023-11-14T11:58:19.849Z,9.33
2023-11-14T12:00:50.054Z,9.03
2023-11-14T12:03:23.542Z,12.73
2023-11-14T12:06:01.236Z,8.73
2023-11-14T12:08:31.611Z,8.10
2023-11-14T12:11:01.762Z,5.87
2023-11-14T12:13:32.065Z,9.47
2023-11-14T12:16:02.903Z,8.20
2023-11-14T12:18:37.452Z,10.43
2023-11-14T12:21:09.842Z,11.17
2023-11-14T12:23:40.338Z,8.57
2023-11-14T12:26:10.512Z,10.20
2023-11-14T12:28:41.622Z,10.90
2023-11-14T12:31:14.967Z,14.73
2023-11-14T12:33:53.979Z,16.30
2023-11-14T12:36:28.114Z,14.70
2023-11-14T12:38:58.994Z,13.30
2023-11-14T12:41:31.600Z,10.50
2023-11-14T12:44:08.366Z,12.80
2023-11-14T12:46:41.076Z,12.47
2023-11-14T12:49:19.153Z,23.87
2023-11-14T12:51:51.855Z,11.60
2023-11-14T12:54:24.778Z,12.53
2023-11-14T12:56:56.832Z,7.70
2023-11-14T12:59:27.702Z,9.13
2023-11-14T13:01:58.498Z,5.37
2023-11-14T13:04:31.496Z,10.10
2023-11-14T13:07:01.787Z,11.07
2023-11-14T13:09:33.133Z,7.97
2023-11-14T13:12:06.691Z,14.97
2023-11-14T13:14:39.076Z,8.70
2023-11-14T13:17:10.439Z,10.07
2023-11-14T13:19:44.469Z,10.90
2023-11-14T13:22:22.279Z,9.40
2023-11-14T13:24:55.847Z,7.53
2023-11-14T13:27:26.247Z,10.93
2023-11-14T13:29:57.011Z,18.33
2023-11-14T13:32:27.913Z,13.00
2023-11-14T13:35:06.961Z,12.23
2023-11-14T13:37:38.021Z,13.60
2023-11-14T13:40:10.083Z,10.07
2023-11-14T13:42:43.373Z,13.93
2023-11-14T13:45:13.796Z,10.83
2023-11-14T13:47:44.282Z,10.00
2023-11-14T13:50:18.107Z,10.43
2023-11-14T13:52:48.569Z,12.07
2023-11-14T13:55:19.378Z,16.70
2023-11-14T13:57:49.819Z,10.67
2023-11-14T14:00:24.193Z,18.20
2023-11-14T14:02:54.464Z,9.67
2023-11-14T14:05:27.458Z,18.17
2023-11-14T14:07:57.942Z,11.57
2023-11-14T14:10:28.372Z,15.80
2023-11-14T14:12:59.576Z,11.97
2023-11-14T14:15:30.030Z,14.87
2023-11-14T14:18:00.664Z,12.47
2023-11-14T14:20:38.208Z,20.40
2023-11-14T14:23:09.586Z,13.73
2023-11-14T14:25:39.798Z,12.23
2023-11-14T14:28:10.378Z,16.23
2023-11-14T14:30:42.607Z,11.43
2023-11-14T14:33:17.472Z,11.90
2023-11-14T14:35:53.652Z,9.70
2023-11-14T14:38:28.673Z,7.67
2023-11-14T14:41:01.602Z,15.43
2023-11-14T14:43:32.524Z,10.33
2023-11-14T14:46:02.610Z,8.27
2023-11-14T14:48:33.796Z,14.87
2023-11-14T14:51:07.035Z,8.50
2023-11-14T14:53:37.412Z,9.80
2023-11-14T14:56:08.448Z,9.93
2023-11-14T14:58:38.799Z,15.67
2023-11-14T15:01:10.992Z,9.23
2023-11-14T15:03:41.247Z,12.00
2023-11-14T15:06:14.188Z,8.90
2023-11-14T15:08:44.943Z,11.63
2023-11-14T15:11:17.373Z,10.80
2023-11-14T15:13:48.724Z,9.17
2023-11-14T15:16:19.355Z,14.00
2023-11-14T15:18:49.798Z,10.33
2023-11-14T15:21:22.703Z,8.30
2023-11-14T15:23:53.500Z,10.83
2023-11-14T15:26:28.005Z,9.90
2023-11-14T15:28:58.551Z,13.60
2023-11-14T15:31:30.900Z,11.83
2023-11-14T15:34:04.401Z,8.73
2023-11-14T15:36:39.676Z,13.60
2023-11-14T15:39:10.426Z,12.53
2023-11-14T15:41:43.162Z,13.53
2023-11-14T15:44:15.960Z,10.37
2023-11-14T15:46:46.894Z,11.13
2023-11-14T15:49:20.718Z,12.37
2023-11-14T15:51:58.058Z,11.87
2023-11-14T15:54:29.237Z,46.90
2023-11-14T15:57:00.221Z,11.03
2023-11-14T15:59:30.713Z,12.57
2023-11-14T16:02:00.975Z,12.40
2023-11-14T16:04:49.944Z,9.33
2023-11-14T16:07:22.694Z,11.13
2023-11-14T16:09:53.199Z,7.90
2023-11-14T16:12:25.496Z,10.50
2023-11-14T16:15:14.412Z,15.10
2023-11-14T16:17:44.727Z,15.40
2023-11-14T16:20:33.986Z,14.10
2023-11-14T16:23:25.321Z,9.57
2023-11-14T16:25:55.563Z,11.10
2023-11-14T16:28:44.134Z,8.13
2023-11-14T16:31:14.429Z,11.87
2023-11-14T16:33:44.630Z,11.80
2023-11-14T16:36:33.255Z,13.03
2023-11-14T16:39:06.747Z,9.77
2023-11-14T16:41:39.661Z,13.50
2023-11-14T16:44:28.846Z,11.90
2023-11-14T16:46:59.053Z,14.87
2023-11-14T16:49:48.663Z,18.77
2023-11-14T16:52:37.134Z,10.43
2023-11-14T16:55:11.293Z,14.60
2023-11-14T16:57:42.882Z,15.87
2023-11-14T17:00:17.300Z,17.03
2023-11-14T17:02:52.224Z,12.57
2023-11-14T17:05:22.494Z,15.03
2023-11-14T17:07:55.142Z,11.90
2023-11-14T17:10:46.570Z,13.13
2023-11-14T17:13:17.293Z,14.20
2023-11-14T17:15:47.582Z,11.50
2023-11-14T17:18:17.892Z,14.77
2023-11-14T17:20:48.411Z,9.87
2023-11-14T17:23:19.474Z,12.10
2023-11-14T17:26:12.209Z,9.23
2023-11-14T17:28:46.400Z,14.70
2023-11-14T17:31:16.587Z,13.63
2023-11-14T17:33:46.780Z,12.40
2023-11-14T17:36:17.090Z,9.77
2023-11-14T17:38:47.231Z,14.13
2023-11-14T17:41:39.062Z,12.63
2023-11-14T17:44:10.800Z,12.20
2023-11-14T17:46:41.364Z,24.47
2023-11-14T17:49:14.198Z,16.90
2023-11-14T17:51:45.828Z,17.87
2023-11-14T17:54:16.116Z,10.67
2023-11-14T17:56:52.045Z,12.07
2023-11-14T17:59:22.471Z,10.93
2023-11-14T18:02:11.043Z,9.53
2023-11-14T18:04:59.860Z,9.63
2023-11-14T18:07:30.072Z,11.90
2023-11-14T18:10:00.339Z,12.90
2023-11-14T18:12:33.148Z,13.43
2023-11-14T18:15:06.076Z,9.63
2023-11-14T18:17:36.402Z,8.17
2023-11-14T18:20:08.031Z,15.80
2023-11-14T18:22:38.246Z,8.97
2023-11-14T18:25:09.825Z,9.97
2023-11-14T18:27:42.779Z,5.90
2023-11-14T18:30:13.744Z,12.83
2023-11-14T18:32:44.064Z,9.97
2023-11-14T18:35:14.803Z,14.60
2023-11-14T18:37:45.424Z,12.03
2023-11-14T18:40:16.261Z,10.10
2023-11-14T18:42:49.277Z,10.33
2023-11-14T18:45:41.294Z,29.17
2023-11-14T18:48:12.109Z,13.00
2023-11-14T18:50:46.623Z,11.63
2023-11-14T18:53:18.375Z,9.27
2023-11-14T18:55:49.568Z,8.17
2023-11-14T18:58:24.124Z,13.90
2023-11-14T19:01:01.050Z,14.37
2023-11-14T19:03:33.030Z,8.07
2023-11-14T19:06:06.305Z,9.07
2023-11-14T19:08:37.536Z,12.83
2023-11-14T19:11:11.287Z,8.37
2023-11-14T19:13:48.702Z,10.50
2023-11-14T19:16:21.446Z,15.63
2023-11-14T19:18:51.802Z,11.97
2023-11-14T19:21:45.226Z,7.30
2023-11-14T19:24:20.040Z,11.97
2023-11-14T19:26:50.472Z,6.43
2023-11-14T19:29:23.210Z,10.87
2023-11-14T19:32:12.128Z,9.13
2023-11-14T19:34:44.662Z,9.20
2023-11-14T19:37:33.323Z,13.57
2023-11-14T19:40:06.788Z,10.20
2023-11-14T19:42:36.919Z,9.80
2023-11-14T19:45:10.612Z,11.27
2023-11-14T19:47:43.138Z,10.70
2023-11-14T19:50:15.654Z,9.80
2023-11-14T19:53:05.902Z,7.70
2023-11-14T19:55:35.954Z,10.03
2023-11-14T19:58:06.152Z,12.93
2023-11-14T20:00:39.040Z,10.43
2023-11-14T20:03:09.609Z,6.70
2023-11-14T20:05:42.998Z,8.27
2023-11-14T20:08:13.400Z,11.03
2023-11-14T20:14:23.202Z,10.20
2023-11-14T20:16:56.233Z,7.57
2023-11-14T20:19:26.509Z,10.43
2023-11-14T20:21:57.047Z,11.77
2023-11-14T20:24:27.438Z,10.90
2023-11-14T20:26:57.895Z,9.07
2023-11-14T20:29:28.029Z,8.80
2023-11-14T20:32:00.754Z,9.13
2023-11-14T20:34:31.471Z,7.40
2023-11-14T20:37:02.006Z,9.23
2023-11-14T20:39:34.235Z,7.73
2023-11-14T20:42:06.725Z,9.07
2023-11-14T20:44:37.012Z,8.57
2023-11-14T20:47:13.451Z,8.77
2023-11-14T20:49:43.663Z,8.30
2023-11-14T20:52:17.138Z,15.40
2023-11-14T20:54:49.769Z,7.93
2023-11-14T20:57:21.463Z,7.83
2023-11-14T20:59:52.743Z,11.93
2023-11-14T21:02:25.764Z,10.27
2023-11-14T21:05:01.450Z,7.70
2023-11-14T21:07:31.820Z,6.20
2023-11-14T21:10:02.293Z,7.67
2023-11-14T21:12:37.088Z,12.60
2023-11-14T21:15:10.372Z,10.27
2023-11-14T21:17:50.582Z,7.07
2023-11-14T21:20:28.529Z,5.97
2023-11-14T21:22:58.872Z,7.80
2023-11-14T21:25:50.638Z,7.90
2023-11-14T21:28:39.747Z,8.63
2023-11-14T21:31:18.699Z,8.13
2023-11-14T21:33:56.337Z,6.70
2023-11-14T21:36:27.579Z,7.40
2023-11-14T21:38:57.750Z,10.27
2023-11-14T21:41:28.109Z,9.20
2023-11-14T21:43:59.366Z,10.07
2023-11-14T21:46:30.166Z,8.83
2023-11-14T21:49:03.521Z,9.73
2023-11-14T21:51:35.186Z,11.27
2023-11-14T21:54:08.933Z,6.27
2023-11-14T21:56:40.810Z,9.83
2023-11-14T21:59:12.024Z,7.33
2023-11-14T22:01:42.498Z,8.03
2023-11-14T22:04:17.136Z,12.50
2023-11-14T22:06:47.632Z,9.60
2023-11-14T22:09:20.037Z,7.50
2023-11-14T22:11:55.049Z,12.50
2023-11-14T22:14:28.011Z,9.07
2023-11-14T22:17:02.878Z,9.90
2023-11-14T22:19:38.142Z,6.20
2023-11-14T22:22:08.597Z,7.30
2023-11-14T22:24:38.866Z,11.27
2023-11-14T22:27:29.833Z,12.57
2023-11-14T22:30:00.793Z,6.83
2023-11-14T22:32:32.294Z,8.07
2023-11-14T22:35:05.465Z,10.17
2023-11-14T22:37:36.140Z,10.43
2023-11-14T22:40:07.225Z,9.03
2023-11-14T22:42:37.397Z,6.90
2023-11-14T22:45:11.227Z,9.97
2023-11-14T22:47:43.120Z,14.53
2023-11-14T22:50:16.300Z,10.37
2023-11-14T22:52:49.063Z,11.53
2023-11-14T22:55:19.410Z,11.43
2023-11-14T22:57:54.054Z,11.87
2023-11-14T23:00:45.065Z,14.00
2023-11-14T23:03:16.360Z,8.43
2023-11-14T23:05:49.406Z,13.57
2023-11-14T23:08:24.095Z,10.93
2023-11-14T23:10:54.313Z,9.77
2023-11-14T23:13:43.268Z,8.30
2023-11-14T23:16:13.560Z,9.83
2023-11-14T23:18:44.925Z,10.90
2023-11-14T23:21:17.925Z,9.97
2023-11-14T23:23:48.172Z,7.90
2023-11-14T23:26:19.106Z,14.60
2023-11-14T23:28:51.354Z,9.53
2023-11-14T23:31:23.014Z,13.13
2023-11-14T23:33:53.397Z,10.97
2023-11-14T23:36:27.147Z,7.40
2023-11-14T23:39:06.560Z,8.23
2023-11-14T23:41:37.592Z,8.03
2023-11-14T23:44:11.195Z,10.43
2023-11-14T23:46:45.746Z,10.70
2023-11-14T23:49:17.285Z,12.53
2023-11-14T23:51:51.497Z,16.27
2023-11-14T23:54:27.658Z,10.23
2023-11-14T23:56:58.534Z,8.83
2023-11-14T23:59:29.568Z,9.87
